Lavallette, New Jersey
Current Conditions -  °F | °C
As of 8:35 PM on Tuesday 27 Jan 2015 (Local Time) from KMJX Reporting Station
Clear Clear  
Wind Chill: 14°   Ceiling: Unl
Heat Index: 25°   Visibility: 10mi
Dew Point: 12°   Wind: 12mph
Humidity: 59%   Direction: 330°NNW
Pressure: 29.79"   Gusts: 17mph
Location:  39.97°N, 74.07°W
Report Text: KMJX 280135Z AUTO 33010G15KT 10SM CLR M04/M11 A2979 RMK AO1
Loading
Personal Weather Stations






























Interactive Weather Map New forecast layout! Learn more

10-Day Weather Forecast

Advertisements
Track Severe Weather on mobile